createdAt,value
2022-08-22T00:02:34.794Z,60.00
2022-08-22T00:03:08.938Z,50.19
2022-08-22T00:03:10.386Z,55.50
2022-08-22T00:05:23.551Z,60.60
2022-08-22T00:08:51.044Z,60.46
2022-08-22T00:11:48.294Z,60.89
2022-08-22T00:14:45.036Z,61.46
2022-08-22T00:17:24.154Z,61.78
2022-08-22T00:20:04.257Z,61.45
2022-08-22T00:22:43.250Z,62.04
2022-08-22T00:25:44.734Z,62.73
2022-08-22T00:28:24.233Z,63.00
2022-08-22T00:31:07.768Z,62.40
2022-08-22T00:34:12.616Z,63.29
2022-08-22T00:37:01.735Z,62.55
2022-08-22T00:39:55.427Z,62.85
2022-08-22T00:42:31.680Z,62.73
2022-08-22T00:45:17.273Z,63.23
2022-08-22T00:48:35.727Z,63.35
2022-08-22T00:51:40.542Z,63.38
2022-08-22T00:54:41.476Z,62.48
2022-08-22T00:57:37.328Z,62.45
2022-08-22T01:00:26.307Z,62.84
2022-08-22T01:03:13.979Z,62.54
2022-08-22T01:06:35.848Z,62.38
2022-08-22T01:09:59.626Z,63.27
2022-08-22T01:13:15.148Z,62.57
2022-08-22T01:15:45.035Z,62.94
2022-08-22T01:18:43.259Z,62.58
2022-08-22T01:22:01.284Z,62.71
2022-08-22T01:25:01.240Z,63.01
2022-08-22T01:27:58.360Z,62.21
2022-08-22T01:30:48.562Z,62.66
2022-08-22T01:33:34.038Z,62.69
2022-08-22T01:36:51.785Z,63.11
2022-08-22T01:39:54.023Z,63.12
2022-08-22T01:42:53.290Z,63.23
2022-08-22T01:46:02.091Z,62.94
2022-08-22T01:48:51.864Z,63.26
2022-08-22T01:51:24.645Z,63.25
2022-08-22T01:54:05.201Z,63.59
2022-08-22T01:56:40.459Z,63.25
2022-08-22T01:59:13.895Z,63.85
2022-08-22T02:02:20.952Z,63.95
2022-08-22T02:05:01.615Z,63.87
2022-08-22T02:08:04.870Z,64.23
2022-08-22T02:10:50.072Z,64.68
2022-08-22T02:13:31.028Z,64.80
2022-08-22T02:16:45.578Z,64.40
2022-08-22T02:19:14.510Z,64.36
2022-08-22T02:22:06.184Z,64.57
2022-08-22T02:24:33.450Z,64.73
2022-08-22T02:27:27.200Z,64.44
2022-08-22T02:30:48.397Z,64.94
2022-08-22T02:33:38.316Z,64.72
2022-08-22T02:36:25.244Z,64.40
2022-08-22T02:42:38.276Z,64.63
2022-08-22T02:45:22.338Z,64.86
2022-08-22T02:48:04.160Z,65.22
2022-08-22T03:09:33.846Z,65.78
2022-08-22T03:12:15.438Z,65.89
2022-08-22T03:15:13.963Z,66.04
2022-08-22T03:17:58.433Z,66.17
2022-08-22T03:20:49.452Z,65.99
2022-08-22T03:23:25.464Z,65.98
2022-08-22T03:26:18.673Z,65.98
2022-08-22T03:28:59.364Z,65.62
2022-08-22T03:31:31.275Z,66.52
2022-08-22T03:34:25.161Z,66.04
2022-08-22T03:37:13.676Z,66.47
2022-08-22T03:40:00.261Z,67.04
2022-08-22T03:43:11.790Z,66.85
2022-08-22T03:46:02.646Z,66.40
2022-08-22T03:48:35.699Z,66.92
2022-08-22T03:51:17.722Z,66.91
2022-08-22T03:54:34.389Z,67.50
2022-08-22T03:57:07.438Z,67.89
2022-08-22T04:00:13.902Z,67.47
2022-08-22T04:02:44.352Z,67.46
2022-08-22T04:05:44.149Z,67.08
2022-08-22T04:08:43.932Z,67.59
2022-08-22T04:11:56.352Z,67.16
2022-08-22T04:15:03.487Z,66.98
2022-08-22T04:17:55.642Z,67.40
2022-08-22T04:20:52.357Z,67.42
2022-08-22T04:23:46.991Z,67.39
2022-08-22T04:26:19.695Z,67.92
2022-08-22T04:28:58.605Z,67.76
2022-08-22T04:31:33.062Z,67.88
2022-08-22T04:34:10.048Z,67.85
2022-08-22T04:36:48.764Z,67.70
2022-08-22T04:39:22.787Z,67.86
2022-08-22T04:42:31.884Z,67.99
2022-08-22T04:45:13.430Z,67.92
2022-08-22T04:47:56.859Z,68.27
2022-08-22T04:50:43.364Z,68.59
2022-08-22T04:53:50.400Z,68.71
2022-08-22T04:56:58.028Z,68.86
2022-08-22T04:59:26.341Z,68.83
2022-08-22T05:02:06.615Z,68.86
2022-08-22T05:04:43.664Z,69.44
2022-08-22T05:07:18.412Z,69.15
2022-08-22T05:09:54.846Z,69.28
2022-08-22T05:12:41.039Z,69.25
2022-08-22T05:15:15.194Z,69.14
2022-08-22T05:17:50.147Z,69.30
2022-08-22T05:20:26.679Z,70.04
2022-08-22T05:23:05.918Z,69.99
2022-08-22T05:25:39.351Z,70.09
2022-08-22T05:28:18.296Z,69.90
2022-08-22T05:30:48.265Z,70.50
2022-08-22T05:33:45.981Z,70.59
2022-08-22T05:37:05.071Z,70.64
2022-08-22T05:39:39.783Z,70.98
2022-08-22T05:42:15.377Z,70.47
2022-08-22T05:44:42.634Z,71.08
2022-08-22T05:47:37.163Z,70.75
2022-08-22T05:50:20.760Z,70.73
2022-08-22T05:53:09.067Z,70.94
2022-08-22T05:56:15.863Z,71.15
2022-08-22T05:58:53.556Z,71.28
2022-08-22T06:02:07.673Z,70.81
2022-08-22T06:04:57.387Z,70.79
2022-08-22T06:07:49.161Z,70.73
2022-08-22T06:10:40.839Z,70.37
2022-08-22T06:13:25.431Z,70.29
2022-08-22T06:16:03.851Z,70.21
2022-08-22T06:18:32.701Z,69.90
2022-08-22T06:21:04.259Z,69.86
2022-08-22T06:23:53.238Z,69.70
2022-08-22T06:26:21.542Z,69.64
2022-08-22T06:28:54.755Z,68.93
2022-08-22T06:31:30.803Z,68.64
2022-08-22T06:34:10.471Z,68.53
2022-08-22T06:36:40.933Z,68.07
2022-08-22T06:39:30.507Z,67.66
2022-08-22T06:42:13.333Z,67.91
2022-08-22T06:44:45.591Z,67.85
2022-08-22T06:47:43.481Z,67.41
2022-08-22T06:50:30.987Z,67.53
2022-08-22T06:53:11.945Z,67.56
2022-08-22T06:55:46.906Z,67.55
2022-08-22T06:58:33.845Z,67.06
2022-08-22T07:01:13.904Z,66.80
2022-08-22T07:03:50.301Z,67.41
2022-08-22T07:06:43.868Z,66.84
2022-08-22T07:09:25.223Z,66.91
2022-08-22T07:11:55.277Z,67.29
2022-08-22T07:14:39.330Z,67.05
2022-08-22T07:17:09.301Z,66.85
2022-08-22T07:19:48.048Z,66.33
2022-08-22T07:22:30.729Z,66.50
2022-08-22T07:25:11.079Z,66.44
2022-08-22T07:28:09.655Z,66.24
2022-08-22T07:31:16.047Z,65.58
2022-08-22T07:33:48.427Z,65.41
2022-08-22T07:36:49.331Z,65.25
2022-08-22T07:39:28.233Z,64.73
2022-08-22T07:42:10.480Z,65.44
2022-08-22T07:45:09.123Z,64.58
2022-08-22T07:48:03.631Z,64.85
2022-08-22T07:50:36.611Z,64.47
2022-08-22T07:53:30.570Z,64.48
2022-08-22T07:56:00.644Z,63.54
2022-08-22T07:58:33.902Z,63.67
2022-08-22T08:01:01.692Z,63.12
2022-08-22T08:03:31.071Z,62.61
2022-08-22T08:06:01.098Z,62.30
2022-08-22T08:08:42.440Z,61.82
2022-08-22T08:11:13.975Z,60.98
2022-08-22T08:13:51.948Z,61.54
2022-08-22T08:16:25.765Z,60.93
2022-08-22T08:18:57.429Z,61.18
2022-08-22T08:21:38.425Z,61.06
2022-08-22T08:24:13.422Z,60.91
2022-08-22T08:27:04.081Z,60.84
2022-08-22T08:29:32.405Z,60.66
2022-08-22T08:32:01.517Z,60.61
2022-08-22T08:34:32.509Z,60.59
2022-08-22T08:37:20.555Z,60.97
2022-08-22T08:39:53.620Z,59.86
2022-08-22T08:42:57.990Z,60.25
2022-08-22T08:45:56.494Z,59.62
2022-08-22T08:48:54.385Z,59.15
2022-08-22T08:51:46.319Z,58.99
2022-08-22T08:55:02.462Z,59.38
2022-08-22T08:58:07.054Z,57.56
2022-08-22T09:00:43.009Z,57.89
2022-08-22T09:03:30.533Z,57.01
2022-08-22T09:06:25.112Z,57.42
2022-08-22T09:09:36.350Z,57.74
2022-08-22T09:12:32.458Z,57.32
2022-08-22T09:15:02.714Z,57.12
2022-08-22T09:18:13.855Z,56.24
2022-08-22T09:21:03.155Z,57.51
2022-08-22T09:23:57.145Z,56.91
2022-08-22T09:26:49.112Z,56.45
2022-08-22T09:29:31.021Z,57.05
2022-08-22T09:32:35.702Z,56.82
2022-08-22T09:35:10.134Z,57.28
2022-08-22T09:38:00.809Z,57.39
2022-08-22T09:41:02.325Z,56.71
2022-08-22T09:44:23.026Z,56.64
2022-08-22T09:47:48.113Z,56.82
2022-08-22T09:50:33.289Z,56.81
2022-08-22T09:53:19.370Z,55.81
2022-08-22T09:55:51.302Z,55.29
2022-08-22T09:58:49.644Z,54.78
2022-08-22T10:01:26.812Z,54.35
2022-08-22T10:04:14.749Z,54.45
2022-08-22T10:07:11.199Z,54.67
2022-08-22T10:10:11.481Z,55.00
2022-08-22T10:13:10.377Z,54.34
2022-08-22T10:15:52.607Z,54.08
2022-08-22T10:18:52.836Z,54.01
2022-08-22T10:21:58.906Z,53.88
2022-08-22T10:24:52.143Z,52.86
2022-08-22T10:27:39.985Z,53.29
2022-08-22T10:30:13.578Z,53.19
2022-08-22T10:33:17.268Z,52.98
2022-08-22T10:35:44.108Z,53.44
2022-08-22T10:38:46.868Z,53.88
2022-08-22T10:41:39.960Z,52.40
2022-08-22T10:44:14.929Z,52.72
2022-08-22T10:46:47.754Z,52.89
2022-08-22T10:50:01.548Z,53.26
2022-08-22T10:52:50.497Z,52.65
2022-08-22T10:55:26.067Z,51.60
2022-08-22T10:58:06.111Z,52.03
2022-08-22T11:01:00.548Z,51.88
2022-08-22T11:04:00.943Z,52.25
2022-08-22T11:06:46.909Z,51.55
2022-08-22T11:09:33.305Z,51.21
2022-08-22T11:12:34.666Z,50.36
2022-08-22T11:15:49.351Z,50.58
2022-08-22T11:19:02.848Z,50.44
2022-08-22T11:22:00.327Z,49.30
2022-08-22T11:24:34.534Z,48.43
2022-08-22T11:27:39.524Z,48.33
2022-08-22T11:30:18.403Z,48.41
2022-08-22T11:32:58.940Z,48.53
2022-08-22T11:35:43.147Z,47.34
2022-08-22T11:38:50.178Z,46.50
2022-08-22T11:41:53.007Z,46.02
2022-08-22T11:44:31.325Z,46.09
2022-08-22T11:47:08.936Z,46.71
2022-08-22T11:50:14.382Z,47.64
2022-08-22T11:53:32.863Z,47.45
2022-08-22T11:56:12.304Z,46.70
2022-08-22T11:58:59.827Z,46.31
2022-08-22T12:01:49.231Z,45.18
2022-08-22T12:04:28.799Z,45.11
2022-08-22T12:07:21.424Z,44.53
2022-08-22T12:10:15.049Z,45.17
2022-08-22T12:13:13.613Z,44.50
2022-08-22T12:16:24.752Z,44.74
2022-08-22T12:20:05.629Z,44.39
2022-08-22T12:23:03.521Z,43.82
2022-08-22T12:26:22.163Z,42.83
2022-08-22T12:29:00.652Z,42.63
2022-08-22T12:32:16.941Z,43.08
2022-08-22T12:35:18.717Z,43.76
2022-08-22T12:38:27.989Z,43.58
2022-08-22T12:41:09.420Z,43.96
2022-08-22T12:44:17.201Z,43.94
2022-08-22T12:47:11.890Z,43.21
2022-08-22T12:50:06.846Z,42.87
2022-08-22T12:53:10.771Z,43.14
2022-08-22T12:56:01.020Z,43.34
2022-08-22T12:58:51.401Z,41.76
2022-08-22T13:01:19.362Z,40.91
2022-08-22T13:04:01.233Z,40.62
2022-08-22T13:06:37.869Z,41.34
2022-08-22T13:09:28.573Z,41.14
2022-08-22T13:12:29.155Z,41.11
2022-08-22T13:15:13.463Z,40.77
2022-08-22T13:17:44.747Z,41.25
2022-08-22T13:20:35.112Z,40.70
2022-08-22T13:23:14.895Z,41.36
2022-08-22T13:25:56.751Z,42.14
2022-08-22T13:28:25.521Z,41.16
2022-08-22T13:30:56.070Z,40.87
2022-08-22T13:33:33.659Z,40.01
2022-08-22T13:36:10.847Z,39.50
2022-08-22T13:39:12.095Z,39.94
2022-08-22T13:41:51.259Z,40.49
2022-08-22T13:44:25.402Z,40.62
2022-08-22T13:47:13.811Z,41.77
2022-08-22T13:49:45.938Z,40.95
2022-08-22T13:52:38.928Z,40.50
2022-08-22T13:55:29.991Z,40.24
2022-08-22T13:58:11.207Z,39.73
2022-08-22T14:01:13.954Z,39.36
2022-08-22T14:04:28.309Z,38.37
2022-08-22T14:07:04.669Z,38.95
2022-08-22T14:09:54.343Z,39.89
2022-08-22T14:12:50.929Z,39.47
2022-08-22T14:15:26.591Z,38.64
2022-08-22T14:18:15.156Z,38.10
2022-08-22T14:20:45.857Z,38.91
2022-08-22T14:23:29.232Z,38.03
2022-08-22T14:25:57.713Z,38.52
2022-08-22T14:28:33.766Z,38.00
2022-08-22T14:31:13.268Z,37.27
2022-08-22T14:33:51.114Z,37.38
2022-08-22T14:36:29.793Z,37.88
2022-08-22T14:39:11.196Z,37.93
2022-08-22T14:41:58.653Z,37.25
2022-08-22T14:44:47.991Z,36.17
2022-08-22T14:48:09.899Z,36.65
2022-08-22T14:50:42.273Z,36.46
2022-08-22T14:53:19.179Z,36.66
2022-08-22T14:56:18.529Z,35.53
2022-08-22T14:59:02.690Z,36.62
2022-08-22T15:01:35.106Z,36.67
2022-08-22T15:04:17.712Z,36.43
2022-08-22T15:06:54.874Z,37.00
2022-08-22T15:09:36.616Z,36.99
2022-08-22T15:12:21.525Z,37.54
2022-08-22T15:14:55.485Z,37.21
2022-08-22T15:17:52.717Z,36.91
2022-08-22T15:20:36.446Z,36.87
2022-08-22T15:23:21.328Z,37.37
2022-08-22T15:26:04.358Z,38.19
2022-08-22T15:28:52.445Z,36.94
2022-08-22T15:31:21.353Z,36.81
2022-08-22T15:33:49.794Z,37.14
2022-08-22T15:36:25.018Z,37.05
2022-08-22T15:39:42.746Z,36.90
2022-08-22T15:42:10.791Z,37.43
2022-08-22T15:44:44.309Z,37.79
2022-08-22T15:47:31.541Z,36.98
2022-08-22T15:50:14.694Z,36.85
2022-08-22T15:53:07.063Z,37.15
2022-08-22T15:55:35.634Z,36.48
2022-08-22T15:58:12.786Z,36.15
2022-08-22T16:00:45.155Z,35.40
2022-08-22T16:03:27.608Z,35.92
2022-08-22T16:06:04.527Z,36.25
2022-08-22T16:08:50.420Z,36.22
2022-08-22T16:11:33.428Z,36.57
2022-08-22T16:14:35.050Z,35.96
2022-08-22T16:17:29.882Z,36.15
2022-08-22T16:20:12.046Z,36.82
2022-08-22T16:22:56.585Z,35.95
2022-08-22T16:25:47.549Z,36.07
2022-08-22T16:28:56.452Z,36.42
2022-08-22T16:31:35.788Z,36.03
2022-08-22T16:34:18.299Z,35.70
2022-08-22T16:37:03.698Z,35.70
2022-08-22T16:39:42.843Z,36.55
2022-08-22T16:42:13.025Z,36.74
2022-08-22T16:44:46.098Z,36.59
2022-08-22T16:47:23.971Z,37.00
2022-08-22T16:49:50.973Z,36.98
2022-08-22T16:52:21.145Z,37.60
2022-08-22T16:54:57.708Z,37.36
2022-08-22T16:58:05.286Z,36.32
2022-08-22T17:00:58.086Z,36.62
2022-08-22T17:03:45.905Z,37.31
2022-08-22T17:06:38.614Z,37.03
2022-08-22T17:09:48.890Z,37.68
2022-08-22T17:12:50.572Z,37.77
2022-08-22T17:15:52.421Z,38.67
2022-08-22T17:18:59.186Z,37.93
2022-08-22T17:21:40.809Z,38.28
2022-08-22T17:24:44.820Z,38.39
2022-08-22T17:27:34.998Z,39.58
2022-08-22T17:30:09.726Z,39.31
2022-08-22T17:32:59.804Z,39.54
2022-08-22T17:36:04.208Z,40.13
2022-08-22T17:38:46.171Z,40.52
2022-08-22T17:41:41.046Z,41.00
2022-08-22T17:44:44.855Z,40.92
2022-08-22T17:47:22.007Z,40.53
2022-08-22T17:50:23.899Z,40.33
2022-08-22T17:53:00.410Z,40.72
2022-08-22T17:55:31.513Z,41.30
2022-08-22T17:58:37.609Z,41.76
2022-08-22T18:01:15.085Z,42.34
2022-08-22T18:03:51.641Z,42.33
2022-08-22T18:06:26.351Z,42.07
2022-08-22T18:09:15.438Z,41.94
2022-08-22T18:11:45.466Z,41.96
2022-08-22T18:14:25.470Z,42.66
2022-08-22T18:16:55.494Z,43.07
2022-08-22T18:19:59.868Z,43.09
2022-08-22T18:22:44.356Z,44.09
2022-08-22T18:25:39.712Z,44.67
2022-08-22T18:28:40.973Z,44.89
2022-08-22T18:31:45.687Z,45.33
2022-08-22T18:34:30.332Z,45.43
2022-08-22T18:37:33.028Z,46.27
2022-08-22T18:40:08.470Z,46.32
2022-08-22T18:43:06.472Z,46.71
2022-08-22T18:46:00.151Z,47.17
2022-08-22T18:48:54.357Z,47.62
2022-08-22T18:51:38.711Z,47.77
2022-08-22T18:54:06.840Z,48.49
2022-08-22T18:56:49.716Z,48.72
2022-08-22T18:59:37.558Z,49.00
2022-08-22T19:02:33.727Z,49.16
2022-08-22T19:05:48.611Z,49.72
2022-08-22T19:08:28.932Z,50.10
2022-08-22T19:11:02.434Z,50.45
2022-08-22T19:13:41.672Z,50.70
2022-08-22T19:16:45.456Z,50.58
2022-08-22T19:20:01.157Z,50.36
2022-08-22T19:22:34.439Z,50.48
2022-08-22T19:25:12.544Z,50.27
2022-08-22T19:27:44.897Z,50.77
2022-08-22T19:30:33.560Z,50.78
2022-08-22T19:33:40.083Z,51.03
2022-08-22T19:36:12.940Z,50.46
2022-08-22T19:38:58.221Z,50.63
2022-08-22T19:41:50.806Z,50.16
2022-08-22T19:44:17.951Z,50.44
2022-08-22T19:47:02.514Z,49.82
2022-08-22T19:49:36.134Z,49.89
2022-08-22T19:52:12.248Z,49.97
2022-08-22T19:55:21.587Z,49.82
2022-08-22T19:57:59.472Z,49.75
2022-08-22T20:00:56.555Z,49.76
2022-08-22T20:03:55.927Z,50.72
2022-08-22T20:06:45.751Z,49.73
2022-08-22T20:09:46.190Z,50.40
2022-08-22T20:12:34.105Z,50.65
2022-08-22T20:15:19.176Z,50.55
2022-08-22T20:18:11.564Z,50.91
2022-08-22T20:20:39.463Z,50.76
2022-08-22T20:23:18.252Z,51.18
2022-08-22T20:25:51.003Z,52.31
2022-08-22T20:28:39.055Z,52.33
2022-08-22T20:31:27.561Z,52.45
2022-08-22T20:34:12.420Z,53.08
2022-08-22T20:36:45.477Z,54.00
2022-08-22T20:39:36.827Z,54.14
2022-08-22T20:42:10.144Z,53.93
2022-08-22T20:44:44.345Z,54.85
2022-08-22T20:47:26.899Z,54.69
2022-08-22T20:50:11.920Z,54.47
2022-08-22T20:52:52.003Z,54.69
2022-08-22T20:55:31.521Z,54.42
2022-08-22T20:58:07.041Z,54.60
2022-08-22T21:00:42.828Z,54.49
2022-08-22T21:03:29.097Z,54.95
2022-08-22T21:05:56.215Z,55.19
2022-08-22T21:08:26.615Z,54.89
2022-08-22T21:11:22.596Z,55.28
2022-08-22T21:13:51.656Z,55.15
2022-08-22T21:16:31.555Z,55.63
2022-08-22T21:19:03.566Z,55.92
2022-08-22T21:21:34.400Z,55.33
2022-08-22T21:24:07.115Z,55.43
2022-08-22T21:26:56.410Z,55.64
2022-08-22T21:29:32.887Z,55.53
2022-08-22T21:32:14.125Z,55.54
2022-08-22T21:34:45.643Z,55.78
2022-08-22T21:37:28.658Z,55.83
2022-08-22T21:40:14.866Z,56.25
2022-08-22T21:42:58.293Z,55.80
2022-08-22T21:45:37.508Z,55.94
2022-08-22T21:49:15.684Z,55.62
2022-08-22T21:51:45.823Z,55.55
2022-08-22T21:54:24.920Z,55.98
2022-08-22T21:56:59.648Z,56.06
2022-08-22T21:59:51.790Z,56.30
2022-08-22T22:02:39.618Z,56.02
2022-08-22T22:05:14.914Z,55.92
2022-08-22T22:07:46.418Z,56.26
2022-08-22T22:10:17.491Z,56.99
2022-08-22T22:12:48.866Z,56.91
2022-08-22T22:15:21.051Z,56.60
2022-08-22T22:17:48.273Z,56.97
2022-08-22T22:20:21.502Z,56.80
2022-08-22T22:22:49.881Z,57.88
2022-08-22T22:25:39.737Z,57.05
2022-08-22T22:28:32.978Z,57.37
2022-08-22T22:31:00.312Z,57.66
2022-08-22T22:33:34.595Z,58.11
2022-08-22T22:36:18.996Z,58.31
2022-08-22T22:38:46.546Z,58.32
2022-08-22T22:41:14.077Z,58.10
2022-08-22T22:43:42.402Z,58.41
2022-08-22T22:46:09.583Z,58.32
2022-08-22T22:48:36.643Z,58.83
2022-08-22T22:51:11.352Z,58.77
2022-08-22T22:53:42.574Z,58.30
2022-08-22T22:56:14.349Z,59.10
2022-08-22T22:58:43.812Z,59.01
2022-08-22T23:01:19.341Z,59.68
2022-08-22T23:03:48.049Z,59.27
2022-08-22T23:06:20.163Z,59.40
2022-08-22T23:08:48.096Z,59.79
2022-08-22T23:11:20.336Z,60.18
2022-08-22T23:13:48.570Z,60.13
2022-08-22T23:16:24.141Z,60.08
2022-08-22T23:18:52.256Z,60.70
2022-08-22T23:21:30.410Z,60.95
2022-08-22T23:23:59.615Z,60.86
2022-08-22T23:26:28.243Z,61.07
2022-08-22T23:28:56.577Z,61.11
2022-08-22T23:31:36.819Z,61.09
2022-08-22T23:34:09.442Z,61.25
2022-08-22T23:36:37.978Z,61.01
2022-08-22T23:39:08.291Z,61.39
2022-08-22T23:41:37.037Z,60.98
2022-08-22T23:44:09.150Z,61.04
2022-08-22T23:46:42.730Z,61.47
2022-08-22T23:49:09.874Z,61.11
2022-08-22T23:51:37.067Z,61.35
2022-08-22T23:54:05.523Z,61.29
2022-08-22T23:56:40.659Z,61.27
2022-08-22T23:59:13.178Z,61.93
